createdAt,value
2024-01-24T00:00:21.465Z,3.25
2024-01-24T00:02:50.303Z,3.45
2024-01-24T00:05:17.729Z,2.63
2024-01-24T00:07:45.131Z,4.15
2024-01-24T00:10:12.922Z,3.42
2024-01-24T00:12:40.104Z,2.22
2024-01-24T00:15:07.620Z,2.22
2024-01-24T00:17:34.705Z,2.33
2024-01-24T00:20:01.871Z,2.47
2024-01-24T00:22:29.744Z,3.30
2024-01-24T00:24:57.210Z,2.25
2024-01-24T00:27:25.000Z,2.47
2024-01-24T00:29:52.086Z,1.85
2024-01-24T00:32:19.190Z,3.63
2024-01-24T00:34:46.286Z,2.88
2024-01-24T00:37:13.370Z,3.67
2024-01-24T00:39:40.444Z,1.70
2024-01-24T00:42:07.679Z,3.80
2024-01-24T00:44:34.779Z,3.17
2024-01-24T00:47:01.889Z,3.13
2024-01-24T00:49:29.091Z,3.00
2024-01-24T00:51:56.222Z,2.20
2024-01-24T00:54:23.308Z,1.48
2024-01-24T00:56:50.382Z,2.30
2024-01-24T00:59:17.562Z,1.20
2024-01-24T01:01:44.633Z,1.80
2024-01-24T01:04:11.772Z,1.85
2024-01-24T01:06:40.113Z,2.40
2024-01-24T01:09:07.489Z,3.47
2024-01-24T01:11:34.493Z,2.15
2024-01-24T01:14:01.564Z,2.33
2024-01-24T01:16:28.633Z,2.08
2024-01-24T01:18:55.739Z,2.70
2024-01-24T01:21:22.906Z,2.60
2024-01-24T01:23:50.088Z,2.60
2024-01-24T01:26:17.179Z,2.85
2024-01-24T01:28:44.258Z,3.47
2024-01-24T01:31:11.328Z,2.30
2024-01-24T01:33:38.492Z,1.27
2024-01-24T01:36:14.202Z,1.10
2024-01-24T01:38:49.681Z,1.98
2024-01-24T01:41:16.868Z,1.40
2024-01-24T01:43:45.156Z,2.40
2024-01-24T01:46:13.224Z,1.00
2024-01-24T01:48:40.381Z,1.90
2024-01-24T01:51:08.207Z,1.95
2024-01-24T01:53:39.488Z,1.43
2024-01-24T01:56:10.286Z,1.27
2024-01-24T01:58:38.511Z,2.10
2024-01-24T02:01:07.197Z,1.60
2024-01-24T02:03:34.749Z,1.63
2024-01-24T02:06:03.035Z,2.55
2024-01-24T02:08:32.823Z,1.83
2024-01-24T02:11:00.427Z,1.00
2024-01-24T02:13:32.590Z,1.85
2024-01-24T02:16:00.408Z,1.60
2024-01-24T02:18:27.618Z,1.92
2024-01-24T02:20:54.676Z,3.08
2024-01-24T02:23:24.380Z,2.78
2024-01-24T02:25:51.870Z,1.40
2024-01-24T02:28:19.190Z,3.92
2024-01-24T02:30:46.468Z,2.42
2024-01-24T02:33:13.902Z,2.72
2024-01-24T02:35:41.099Z,3.22
2024-01-24T02:38:08.194Z,3.78
2024-01-24T02:40:35.251Z,4.10
2024-01-24T02:43:02.394Z,3.43
2024-01-24T02:45:29.523Z,3.10
2024-01-24T02:47:56.642Z,3.80
2024-01-24T02:50:23.718Z,3.00
2024-01-24T02:52:50.811Z,2.58
2024-01-24T02:55:17.917Z,2.73
2024-01-24T02:57:46.132Z,2.78
2024-01-24T03:00:16.904Z,2.38
2024-01-24T03:02:44.222Z,2.83
2024-01-24T03:05:11.389Z,3.70
2024-01-24T03:07:38.956Z,3.63
2024-01-24T03:10:06.488Z,1.80
2024-01-24T03:12:33.552Z,3.83
2024-01-24T03:15:00.856Z,2.72
2024-01-24T03:17:28.154Z,1.77
2024-01-24T03:19:56.098Z,3.05
2024-01-24T03:22:25.995Z,1.88
2024-01-24T03:24:53.715Z,2.95
2024-01-24T03:27:21.069Z,2.83
2024-01-24T03:29:48.719Z,1.95
2024-01-24T03:32:15.797Z,2.30
2024-01-24T03:34:42.903Z,3.08
2024-01-24T03:37:09.997Z,3.67
2024-01-24T03:39:37.284Z,2.40
2024-01-24T03:42:04.905Z,3.10
2024-01-24T03:44:32.198Z,3.05
2024-01-24T03:46:59.514Z,2.55
2024-01-24T03:49:26.694Z,2.83
2024-01-24T03:51:53.880Z,1.77
2024-01-24T03:54:21.111Z,3.20
2024-01-24T03:56:48.185Z,2.40
2024-01-24T03:59:15.263Z,4.10
2024-01-24T04:01:43.397Z,3.95
2024-01-24T04:04:10.488Z,5.38
2024-01-24T04:06:37.842Z,3.10
2024-01-24T04:09:05.109Z,1.98
2024-01-24T04:11:32.162Z,2.85
2024-01-24T04:13:59.246Z,3.63
2024-01-24T04:16:26.297Z,2.40
2024-01-24T04:18:53.806Z,2.95
2024-01-24T04:21:20.962Z,3.33
2024-01-24T04:23:48.064Z,2.38
2024-01-24T04:26:15.286Z,2.20
2024-01-24T04:28:42.613Z,2.67
2024-01-24T04:31:09.861Z,3.30
2024-01-24T04:33:37.067Z,2.58
2024-01-24T04:36:04.356Z,2.58
2024-01-24T04:38:31.398Z,3.70
2024-01-24T04:40:58.548Z,2.78
2024-01-24T04:43:25.617Z,3.33
2024-01-24T04:45:52.725Z,3.10
2024-01-24T04:48:20.026Z,2.97
2024-01-24T04:50:47.393Z,2.47
2024-01-24T04:53:14.463Z,2.53
2024-01-24T04:55:41.599Z,2.65
2024-01-24T04:58:08.626Z,3.28
2024-01-24T05:00:36.113Z,2.05
2024-01-24T05:03:03.238Z,3.70
2024-01-24T05:05:30.355Z,4.05
2024-01-24T05:07:57.410Z,3.42
2024-01-24T05:10:24.752Z,2.83
2024-01-24T05:12:52.009Z,2.53
2024-01-24T05:15:19.215Z,2.53
2024-01-24T05:17:46.540Z,2.25
2024-01-24T05:20:13.743Z,3.43
2024-01-24T05:22:40.886Z,2.15
2024-01-24T05:25:08.077Z,2.85
2024-01-24T05:27:35.161Z,2.88
2024-01-24T05:30:11.819Z,1.50
2024-01-24T05:32:43.766Z,2.90
2024-01-24T05:35:10.962Z,2.80
2024-01-24T05:37:38.110Z,4.68
2024-01-24T05:40:05.669Z,2.65
2024-01-24T05:42:33.836Z,4.07
2024-01-24T05:45:01.383Z,3.00
2024-01-24T05:47:28.535Z,2.60
2024-01-24T05:49:55.707Z,2.85
2024-01-24T05:52:23.098Z,4.57
2024-01-24T05:54:50.277Z,2.55
2024-01-24T05:57:17.564Z,1.33
2024-01-24T05:59:44.674Z,2.27
2024-01-24T06:02:12.105Z,2.35
2024-01-24T06:04:39.231Z,2.40
2024-01-24T06:07:07.300Z,2.50
2024-01-24T06:09:34.530Z,2.95
2024-01-24T06:12:02.346Z,1.70
2024-01-24T06:14:29.442Z,2.78
2024-01-24T06:16:56.554Z,1.85
2024-01-24T06:19:23.701Z,1.67
2024-01-24T06:21:51.005Z,2.40
2024-01-24T06:24:19.528Z,2.17
2024-01-24T06:26:47.666Z,2.17
2024-01-24T06:29:14.808Z,3.47
2024-01-24T06:31:41.936Z,2.63
2024-01-24T06:34:09.127Z,2.40
2024-01-24T06:36:36.333Z,2.33
2024-01-24T06:39:03.745Z,2.08
2024-01-24T06:41:31.901Z,1.98
2024-01-24T06:43:59.138Z,1.67
2024-01-24T06:46:29.348Z,2.00
2024-01-24T06:48:56.538Z,2.10
2024-01-24T06:51:23.737Z,2.25
2024-01-24T06:53:50.808Z,2.92
2024-01-24T06:56:17.896Z,3.20
2024-01-24T06:58:44.966Z,3.10
2024-01-24T07:01:12.911Z,1.80
2024-01-24T07:03:40.160Z,1.00
2024-01-24T07:06:07.421Z,1.00
2024-01-24T07:08:34.844Z,2.22
2024-01-24T07:11:02.993Z,1.70
2024-01-24T07:13:30.030Z,1.48
2024-01-24T07:15:57.341Z,1.23
2024-01-24T07:18:24.663Z,2.33
2024-01-24T07:20:52.972Z,1.17
2024-01-24T07:23:20.036Z,1.27
2024-01-24T07:25:47.102Z,1.00
2024-01-24T07:28:16.373Z,1.25
2024-01-24T07:30:43.510Z,0.93
2024-01-24T07:33:10.595Z,1.45
2024-01-24T07:35:37.672Z,2.33
2024-01-24T07:38:04.804Z,1.50
2024-01-24T07:40:31.860Z,1.67
2024-01-24T07:42:59.426Z,1.83
2024-01-24T07:45:27.359Z,2.38
2024-01-24T07:47:54.728Z,1.60
2024-01-24T07:50:21.972Z,2.72
2024-01-24T07:52:49.597Z,3.08
2024-01-24T07:55:25.049Z,2.53
2024-01-24T07:57:59.443Z,1.75
2024-01-24T08:00:27.303Z,3.50
2024-01-24T08:02:54.644Z,2.50
2024-01-24T08:05:23.415Z,1.93
2024-01-24T08:07:51.447Z,1.50
2024-01-24T08:10:18.598Z,1.80
2024-01-24T08:12:45.921Z,2.20
2024-01-24T08:15:13.555Z,2.55
2024-01-24T08:17:40.667Z,2.27
2024-01-24T08:20:11.166Z,1.88
2024-01-24T08:22:38.308Z,1.48
2024-01-24T08:25:05.847Z,1.90
2024-01-24T08:27:33.060Z,2.70
2024-01-24T08:30:00.501Z,1.70
2024-01-24T08:32:27.720Z,2.65
2024-01-24T08:34:54.832Z,2.25
2024-01-24T08:37:22.015Z,4.50
2024-01-24T08:39:49.197Z,3.53
2024-01-24T08:42:16.701Z,3.88
2024-01-24T08:44:44.044Z,3.20
2024-01-24T08:47:11.116Z,2.30
2024-01-24T08:49:38.251Z,3.92
2024-01-24T08:52:05.566Z,2.60
2024-01-24T08:54:32.751Z,3.40
2024-01-24T08:57:00.391Z,2.72
2024-01-24T08:59:27.566Z,2.28
2024-01-24T09:01:56.796Z,1.88
2024-01-24T09:04:24.254Z,1.60
2024-01-24T09:06:52.041Z,1.42
2024-01-24T09:09:20.104Z,1.20
2024-01-24T09:11:54.837Z,1.73
2024-01-24T09:14:24.885Z,0.80
2024-01-24T09:16:52.342Z,1.02
2024-01-24T09:19:19.680Z,1.48
2024-01-24T09:21:47.278Z,1.05
2024-01-24T09:24:14.453Z,1.30
2024-01-24T09:26:41.616Z,1.00
2024-01-24T09:29:13.102Z,0.70
2024-01-24T09:31:44.517Z,0.80
2024-01-24T09:34:13.120Z,0.65
2024-01-24T09:36:40.372Z,1.10
2024-01-24T09:39:09.186Z,0.85
2024-01-24T09:41:40.417Z,0.50
2024-01-24T09:44:10.812Z,0.65
2024-01-24T09:46:38.060Z,1.00
2024-01-24T09:49:06.212Z,0.30
2024-01-24T09:51:34.715Z,0.38
2024-01-24T09:54:06.826Z,0.20
2024-01-24T09:56:39.215Z,0.10
2024-01-24T09:59:06.957Z,0.10
2024-01-24T10:01:37.990Z,0.10
2024-01-24T10:04:05.369Z,0.10
2024-01-24T10:06:33.572Z,0.00
2024-01-24T10:09:00.885Z,0.20
2024-01-24T10:11:28.539Z,0.10
2024-01-24T10:13:58.934Z,0.60
2024-01-24T10:16:27.263Z,0.07
2024-01-24T10:18:58.123Z,0.13
2024-01-24T10:21:27.359Z,0.10
2024-01-24T10:23:56.345Z,0.00
2024-01-24T10:26:23.779Z,0.10
2024-01-24T10:28:52.230Z,0.10
2024-01-24T10:31:22.104Z,0.10
2024-01-24T10:33:50.285Z,0.20
2024-01-24T10:36:26.321Z,0.10
2024-01-24T10:38:59.710Z,0.10
2024-01-24T10:41:31.071Z,0.10
2024-01-24T10:43:58.737Z,0.10
2024-01-24T10:46:26.525Z,0.10
2024-01-24T10:48:55.277Z,0.10
2024-01-24T10:51:22.721Z,0.10
2024-01-24T10:53:51.264Z,0.10
2024-01-24T10:56:18.469Z,0.10
2024-01-24T10:58:46.762Z,0.40
2024-01-24T11:01:13.979Z,0.10
2024-01-24T11:03:41.184Z,3.25
2024-01-24T11:06:13.192Z,2.20
2024-01-24T11:08:49.476Z,0.30
2024-01-24T11:11:20.609Z,0.40
2024-01-24T11:13:47.670Z,0.70
2024-01-24T11:16:26.861Z,0.80
2024-01-24T11:18:54.197Z,2.37
2024-01-24T11:21:24.464Z,0.30
2024-01-24T11:23:51.638Z,2.13
2024-01-24T11:26:18.670Z,0.30
2024-01-24T11:28:46.620Z,1.00
2024-01-24T11:31:14.397Z,1.60
2024-01-24T11:34:00.467Z,0.68
2024-01-24T11:36:27.712Z,2.00
2024-01-24T11:38:56.747Z,0.40
2024-01-24T11:41:24.899Z,0.50
2024-01-24T11:43:52.028Z,0.50
2024-01-24T11:46:21.752Z,0.80
2024-01-24T11:48:49.057Z,1.10
2024-01-24T11:51:17.621Z,1.00
2024-01-24T11:53:45.615Z,0.40
2024-01-24T11:56:15.589Z,0.60
2024-01-24T11:58:42.838Z,1.80
2024-01-24T12:01:11.571Z,0.40
2024-01-24T12:03:39.049Z,0.30
2024-01-24T12:06:06.277Z,1.13
2024-01-24T12:08:33.400Z,1.15
2024-01-24T12:11:00.746Z,0.77
2024-01-24T12:13:29.135Z,0.60
2024-01-24T12:15:56.723Z,0.70
2024-01-24T12:18:24.136Z,2.33
2024-01-24T12:20:52.488Z,1.80
2024-01-24T12:23:20.245Z,1.45
2024-01-24T12:25:48.152Z,1.20
2024-01-24T12:28:17.438Z,0.52
2024-01-24T12:30:48.689Z,0.75
2024-01-24T12:33:19.783Z,0.98
2024-01-24T12:35:51.350Z,1.85
2024-01-24T12:38:19.235Z,1.55
2024-01-24T12:40:54.967Z,0.40
2024-01-24T12:43:24.437Z,1.37
2024-01-24T12:45:53.320Z,2.88
2024-01-24T12:48:23.551Z,1.88
2024-01-24T12:50:52.328Z,2.03
2024-01-24T12:53:20.625Z,2.17
2024-01-24T12:55:48.009Z,1.20
2024-01-24T12:58:17.423Z,2.17
2024-01-24T13:00:44.883Z,3.57
2024-01-24T13:03:12.056Z,1.97
2024-01-24T13:05:45.880Z,2.08
2024-01-24T13:08:15.350Z,2.00
2024-01-24T13:10:46.265Z,2.40
2024-01-24T13:13:14.002Z,2.08
2024-01-24T13:15:41.791Z,2.42
2024-01-24T13:18:10.032Z,3.05
2024-01-24T13:20:37.727Z,3.13
2024-01-24T13:23:04.960Z,1.50
2024-01-24T13:25:32.139Z,3.00
2024-01-24T13:28:00.285Z,4.25
2024-01-24T13:30:28.020Z,2.15
2024-01-24T13:32:56.053Z,2.97
2024-01-24T13:35:23.383Z,3.90
2024-01-24T13:37:50.727Z,2.57
2024-01-24T13:40:18.440Z,2.72
2024-01-24T13:42:46.789Z,2.03
2024-01-24T13:45:15.226Z,2.22
2024-01-24T13:47:42.323Z,1.90
2024-01-24T13:50:10.749Z,2.93
2024-01-24T13:52:38.174Z,3.05
2024-01-24T13:55:09.205Z,2.00
2024-01-24T13:57:38.956Z,3.58
2024-01-24T14:00:12.432Z,2.47
2024-01-24T14:02:39.835Z,5.18
2024-01-24T14:05:07.293Z,2.17
2024-01-24T14:07:35.104Z,5.35
2024-01-24T14:10:02.630Z,1.77
2024-01-24T14:12:29.926Z,1.92
2024-01-24T14:14:57.035Z,2.20
2024-01-24T14:17:24.388Z,4.70
2024-01-24T14:19:51.659Z,4.53
2024-01-24T14:22:18.792Z,2.58
2024-01-24T14:24:45.873Z,3.40
2024-01-24T14:27:13.029Z,4.43
2024-01-24T14:29:40.065Z,3.97
2024-01-24T14:32:07.538Z,5.50
2024-01-24T14:34:34.905Z,3.67
2024-01-24T14:37:07.800Z,6.43
2024-01-24T14:39:40.315Z,6.40
2024-01-24T14:42:10.685Z,4.78
2024-01-24T14:44:37.750Z,5.78
2024-01-24T14:47:04.946Z,5.25
2024-01-24T14:49:32.849Z,4.57
2024-01-24T14:52:00.135Z,5.00
2024-01-24T14:54:27.522Z,5.77
2024-01-24T14:56:54.699Z,4.77
2024-01-24T14:59:21.832Z,6.35
2024-01-24T15:01:49.004Z,5.15
2024-01-24T15:04:17.042Z,5.93
2024-01-24T15:06:44.243Z,7.53
2024-01-24T15:09:13.228Z,5.82
2024-01-24T15:11:40.328Z,6.27
2024-01-24T15:14:07.459Z,7.20
2024-01-24T15:16:34.633Z,6.00
2024-01-24T15:19:01.803Z,3.63
2024-01-24T15:21:32.017Z,7.40
2024-01-24T15:24:00.223Z,5.78
2024-01-24T15:26:27.508Z,5.70
2024-01-24T15:28:54.631Z,5.13
2024-01-24T15:31:21.806Z,6.67
2024-01-24T15:33:49.168Z,5.88
2024-01-24T15:36:18.083Z,8.68
2024-01-24T15:38:51.088Z,8.30
2024-01-24T15:41:22.064Z,8.00
2024-01-24T15:43:49.687Z,7.57
2024-01-24T15:46:17.505Z,6.95
2024-01-24T15:48:45.333Z,7.93
2024-01-24T15:51:12.818Z,4.57
2024-01-24T15:53:40.319Z,9.23
2024-01-24T15:56:07.919Z,8.27
2024-01-24T15:58:37.195Z,7.60
2024-01-24T16:01:06.961Z,7.43
2024-01-24T16:03:35.013Z,10.52
2024-01-24T16:06:03.112Z,8.80
2024-01-24T16:08:31.038Z,6.05
2024-01-24T16:10:59.740Z,10.68
2024-01-24T16:13:27.894Z,10.18
2024-01-24T16:15:55.402Z,10.32
2024-01-24T16:18:22.531Z,9.70
2024-01-24T16:20:49.789Z,9.20
2024-01-24T16:23:16.866Z,10.43
2024-01-24T16:25:43.923Z,9.38
2024-01-24T16:28:12.827Z,9.38
2024-01-24T16:30:43.722Z,9.30
2024-01-24T16:33:11.258Z,9.93
2024-01-24T16:35:38.442Z,10.00
2024-01-24T16:38:05.832Z,8.77
2024-01-24T16:40:33.037Z,7.25
2024-01-24T16:43:00.083Z,8.90
2024-01-24T16:45:27.202Z,13.95
2024-01-24T16:47:54.395Z,10.55
2024-01-24T16:50:21.541Z,7.93
2024-01-24T16:52:48.646Z,9.95
2024-01-24T16:55:15.827Z,7.37
2024-01-24T16:57:43.064Z,11.63
2024-01-24T17:00:10.471Z,9.27
2024-01-24T17:02:43.213Z,10.70
2024-01-24T17:05:17.019Z,10.77
2024-01-24T17:07:44.153Z,6.32
2024-01-24T17:10:11.620Z,10.48
2024-01-24T17:12:39.163Z,10.85
2024-01-24T17:15:06.600Z,9.80
2024-01-24T17:17:33.674Z,9.88
2024-01-24T17:20:00.958Z,12.50
2024-01-24T17:22:28.175Z,8.13
2024-01-24T17:24:55.696Z,9.55
2024-01-24T17:27:22.908Z,9.85
2024-01-24T17:29:50.046Z,10.43
2024-01-24T17:32:17.269Z,8.75
2024-01-24T17:34:44.608Z,10.68
2024-01-24T17:37:11.914Z,10.33
2024-01-24T17:39:39.248Z,11.10
2024-01-24T17:42:06.839Z,11.05
2024-01-24T17:44:35.135Z,13.40
2024-01-24T17:47:02.246Z,12.50
2024-01-24T17:49:29.840Z,10.88
2024-01-24T17:51:57.802Z,12.15
2024-01-24T17:54:25.443Z,9.43
2024-01-24T17:56:52.588Z,17.57
2024-01-24T17:59:20.113Z,9.35
2024-01-24T18:01:47.553Z,11.90
2024-01-24T18:04:15.016Z,12.88
2024-01-24T18:06:42.621Z,10.52
2024-01-24T18:09:10.035Z,8.55
2024-01-24T18:11:43.541Z,12.40
2024-01-24T18:14:10.730Z,10.90
2024-01-24T18:16:38.124Z,11.48
2024-01-24T18:19:05.375Z,10.00
2024-01-24T18:21:32.482Z,13.85
2024-01-24T18:23:59.733Z,10.07
2024-01-24T18:26:26.793Z,9.68
2024-01-24T18:28:53.884Z,11.57
2024-01-24T18:31:20.953Z,12.77
2024-01-24T18:33:48.099Z,14.50
2024-01-24T18:36:15.296Z,11.30
2024-01-24T18:38:43.992Z,13.15
2024-01-24T18:41:18.707Z,10.93
2024-01-24T18:43:47.171Z,10.20
2024-01-24T18:46:16.684Z,8.95
2024-01-24T18:48:44.000Z,9.77
2024-01-24T18:51:12.307Z,12.50
2024-01-24T18:53:39.368Z,11.65
2024-01-24T18:56:06.850Z,10.50
2024-01-24T18:58:34.809Z,10.88
2024-01-24T19:01:03.778Z,12.38
2024-01-24T19:03:31.360Z,9.55
2024-01-24T19:06:01.801Z,10.05
2024-01-24T19:08:33.444Z,11.15
2024-01-24T19:11:06.990Z,14.05
2024-01-24T19:13:35.695Z,11.70
2024-01-24T19:16:02.888Z,9.52
2024-01-24T19:18:30.470Z,11.30
2024-01-24T19:20:57.899Z,10.52
2024-01-24T19:23:25.296Z,11.23
2024-01-24T19:25:52.412Z,7.80
2024-01-24T19:28:19.482Z,10.07
2024-01-24T19:30:47.331Z,12.38
2024-01-24T19:33:14.576Z,14.20
2024-01-24T19:35:42.381Z,9.20
2024-01-24T19:38:10.969Z,8.60
2024-01-24T19:40:38.049Z,8.88
2024-01-24T19:43:05.723Z,10.52
2024-01-24T19:45:33.717Z,7.10
2024-01-24T19:48:00.937Z,15.25
2024-01-24T19:50:28.094Z,11.60
2024-01-24T19:52:56.532Z,10.27
2024-01-24T19:55:24.835Z,10.17
2024-01-24T19:57:52.138Z,13.67
2024-01-24T20:00:19.399Z,9.47
2024-01-24T20:02:47.185Z,14.00
2024-01-24T20:05:14.315Z,9.20
2024-01-24T20:07:41.761Z,10.32
2024-01-24T20:10:09.158Z,8.25
2024-01-24T20:12:37.221Z,11.05
2024-01-24T20:15:04.470Z,12.20
2024-01-24T20:17:31.689Z,13.53
2024-01-24T20:19:58.912Z,11.52
2024-01-24T20:22:27.542Z,9.48
2024-01-24T20:24:54.713Z,12.48
2024-01-24T20:27:21.839Z,14.23
2024-01-24T20:29:49.553Z,10.80
2024-01-24T20:32:16.686Z,9.00
2024-01-24T20:34:43.876Z,10.23
2024-01-24T20:37:11.541Z,11.02
2024-01-24T20:39:41.648Z,13.68
2024-01-24T20:42:13.775Z,15.60
2024-01-24T20:44:42.025Z,12.30
2024-01-24T20:47:09.900Z,12.40
2024-01-24T20:49:37.273Z,7.72
2024-01-24T20:52:04.515Z,12.70
2024-01-24T20:54:31.641Z,12.18
2024-01-24T20:56:58.731Z,12.37
2024-01-24T20:59:27.722Z,10.98
2024-01-24T21:01:59.025Z,12.07
2024-01-24T21:04:26.438Z,15.48
2024-01-24T21:06:54.087Z,16.23
2024-01-24T21:09:21.294Z,9.55
2024-01-24T21:11:48.397Z,11.65
2024-01-24T21:14:15.483Z,14.10
2024-01-24T21:16:44.224Z,10.57
2024-01-24T21:19:17.088Z,13.15
2024-01-24T21:21:45.163Z,11.18
2024-01-24T21:24:13.538Z,12.27
2024-01-24T21:26:41.023Z,12.47
2024-01-24T21:29:08.115Z,11.80
2024-01-24T21:31:35.213Z,10.65
2024-01-24T21:34:02.610Z,15.93
2024-01-24T21:36:29.782Z,14.13
2024-01-24T21:38:56.848Z,11.80
2024-01-24T21:41:24.121Z,12.13
2024-01-24T21:43:51.486Z,10.25
2024-01-24T21:46:18.790Z,12.63
2024-01-24T21:48:45.996Z,13.98
2024-01-24T21:51:14.305Z,10.05
2024-01-24T21:53:41.448Z,14.43
2024-01-24T21:56:08.532Z,13.05
2024-01-24T21:58:38.856Z,14.38
2024-01-24T22:01:07.056Z,11.10
2024-01-24T22:03:34.209Z,11.93
2024-01-24T22:06:01.359Z,14.93
2024-01-24T22:08:29.658Z,9.70
2024-01-24T22:10:56.732Z,11.13
2024-01-24T22:13:25.060Z,12.60
2024-01-24T22:15:52.230Z,12.63
2024-01-24T22:18:22.635Z,11.40
2024-01-24T22:20:52.294Z,17.52
2024-01-24T22:23:19.404Z,10.40
2024-01-24T22:25:46.548Z,12.30
2024-01-24T22:28:13.664Z,11.05
2024-01-24T22:30:41.542Z,11.95
2024-01-24T22:33:08.606Z,16.35
2024-01-24T22:35:36.899Z,13.90
2024-01-24T22:38:04.347Z,11.90
2024-01-24T22:40:32.055Z,10.43
2024-01-24T22:42:59.460Z,13.25
2024-01-24T22:45:27.125Z,12.70
2024-01-24T22:47:55.899Z,14.93
2024-01-24T22:50:23.277Z,10.88
2024-01-24T22:52:50.473Z,9.10
2024-01-24T22:55:18.169Z,13.13
2024-01-24T22:57:49.972Z,10.85
2024-01-24T23:00:21.338Z,11.00
2024-01-24T23:02:48.597Z,13.90
2024-01-24T23:05:16.062Z,10.65
2024-01-24T23:07:43.406Z,12.18
2024-01-24T23:10:11.124Z,10.40
2024-01-24T23:12:38.702Z,9.73
2024-01-24T23:15:06.474Z,12.70
2024-01-24T23:17:33.762Z,8.15
2024-01-24T23:20:03.608Z,13.35
2024-01-24T23:22:31.208Z,14.27
2024-01-24T23:24:58.901Z,8.82
2024-01-24T23:27:25.982Z,7.68
2024-01-24T23:29:53.029Z,9.77
2024-01-24T23:32:21.301Z,8.18
2024-01-24T23:34:48.542Z,8.50
2024-01-24T23:37:15.732Z,10.83
2024-01-24T23:39:43.064Z,7.70
2024-01-24T23:42:10.139Z,7.72
2024-01-24T23:44:39.772Z,10.38
2024-01-24T23:47:07.460Z,15.63
2024-01-24T23:49:34.814Z,7.07
2024-01-24T23:52:02.344Z,6.38
2024-01-24T23:54:29.637Z,9.63
2024-01-24T23:56:56.761Z,9.52
2024-01-24T23:59:23.880Z,13.13
